Latest Weather Observations for Warruwi

IDD60801

Issued at 12:31 pm CST Tuesday 30 November 2021 (issued every 10 minutes, with the page automatically refreshed every 10 minutes)

About weather observations | Map of weather stations | Latest weather observations for NT | Other Formats
Station Details ID: 014401 Name: WARRUWI AIRPORT Lat: -11.65 Lon: 133.38 Height: 19.2 m
Data from the previous 72 hours. | See also: Recent months at Warruwi
Date/Time
CST
Temp
°C
App
Temp
°C
Dew
Point
°C
Rel
Hum
%
Delta-T
°C
Wind Press
QNH
hPa
Press
MSL
hPa
Rain since
9am
mm
Dir  Spd
km/h
Gust
km/h
Spd
kts
Gust
kts
30/12:30pm 34.1 37.2 22.2 50 8.2 N 9 17 5 9 1007.2 1007.0 0.0
30/12:00pm 34.0 37.4 22.7 51 7.8 ENE 9 15 5 8 1007.8 1007.6 0.0
30/11:30am 33.5 37.0 23.5 55 7.0 NW 11 32 6 17 1008.0 1007.8 0.0
30/11:00am 32.0 35.8 22.7 58 6.4 WNW 7 13 4 7 1008.4 1008.2 0.0
30/10:30am 32.5 36.7 23.2 58 6.4 NW 6 9 3 5 1008.7 1008.5 0.0
30/10:00am 31.6 35.8 23.4 61 5.7 WNW 7 9 4 5 1009.1 1008.9 0.0
30/09:30am 31.6 35.5 22.9 60 6.0 WNW 7 13 4 7 1009.3 1009.1 0.0
30/09:00am 31.4 35.9 24.0 65 5.2 W 7 11 4 6 1009.4 1009.2 0.0
30/08:30am 31.0 35.4 23.4 64 5.3 W 6 9 3 5 1009.2 1009.0 0.0
30/08:00am 31.1 36.2 24.0 66 4.9 SSW 4 7 2 4 1009.2 1009.0 0.0
30/07:30am 30.3 35.2 23.7 68 4.6 SW 4 6 2 3 1009.0 1008.8 0.0
30/07:00am 29.4 34.4 24.5 75 3.4 SSW 6 9 3 5 1008.5 1008.3 0.0
30/06:30am 28.4 34.0 24.8 81 2.5 SSW 4 6 2 3 1008.1 1007.9 0.0
30/06:00am 27.8 33.9 24.4 82 2.4 CALM 0 2 0 1 1007.8 1007.6 0.0
30/05:30am 27.8 33.0 24.2 81 2.5 SSW 4 6 2 3 1007.7 1007.5 0.0
30/05:00am 27.8 33.1 24.4 82 2.4 SW 4 6 2 3 1007.6 1007.4 0.0
30/04:30am 27.8 33.9 24.4 82 2.4 CALM 0 2 0 1 1007.2 1007.0 0.0
30/04:00am 27.7 33.1 24.5 83 2.2 SW 4 9 2 5 1007.3 1007.1 0.0
30/03:30am 27.5 33.4 24.1 82 2.4 CALM 0 0 0 0 1007.1 1006.9 0.0
30/03:00am 27.6 33.3 23.8 80 2.6 CALM 0 0 0 0 1007.2 1007.0 0.0
30/02:30am 27.9 33.7 23.9 79 2.8 CALM 0 0 0 0 1007.5 1007.3 0.0
30/02:00am 28.2 34.2 24.2 79 2.8 CALM 0 0 0 0 1007.7 1007.5 0.0
30/01:30am 28.1 34.1 24.3 80 2.6 CALM 0 0 0 0 1008.0 1007.8 0.0
30/01:00am 28.3 34.2 24.1 78 2.9 CALM 0 0 0 0 1008.3 1008.1 0.0
30/12:30am 28.4 34.2 24.0 77 3.0 CALM 0 0 0 0 1008.4 1008.2 0.0
30/12:00am 28.6 34.3 23.7 75 3.4 CALM 0 0 0 0 1008.6 1008.4 0.0
 
Date/Time
CST
Temp
°C
App
Temp
°C
Dew
Point
°C
Rel
Hum
%
Delta-T
°C
Wind Press
QNH
hPa
Press
MSL
hPa
Rain since
9am
mm
Dir  Spd
km/h
Gust
km/h
Spd
kts
Gust
kts
29/11:30pm 28.9 34.5 23.6 73 3.7 CALM 0 4 0 2 1008.8 1008.6 0.0
29/11:00pm 29.2 34.3 23.4 71 4.0 NNW 2 2 1 1 1008.9 1008.7 0.0
29/10:30pm 29.4 34.9 23.4 70 4.1 CALM 0 0 0 0 1008.8 1008.6 0.0
29/10:00pm 29.6 34.5 23.1 68 4.5 N 2 4 1 2 1008.6 1008.4 0.0
29/09:30pm 29.7 34.5 22.9 67 4.7 NNW 2 6 1 3 1008.4 1008.2 0.0
29/09:00pm 29.8 34.7 23.0 67 4.7 NW 2 6 1 3 1008.1 1007.9 0.0
29/08:30pm 29.9 34.4 22.9 66 4.8 NW 4 9 2 5 1007.8 1007.6 0.0
29/08:00pm 30.0 34.3 22.7 65 5.0 NW 4 7 2 4 1007.5 1007.3 0.0
29/07:30pm 30.1 34.7 22.5 63 5.2 NNW 2 6 1 3 1006.9 1006.7 0.0
29/07:00pm 30.5 34.7 22.4 62 5.5 NNW 4 7 2 4 1006.4 1006.2 0.0
29/06:30pm 31.0 34.6 22.0 58 6.1 NNW 6 11 3 6 1006.1 1005.9 0.0
29/06:00pm 32.0 35.8 22.4 57 6.6 NW 6 17 3 9 1005.9 1005.7 0.0
29/05:30pm 32.1 35.2 22.2 56 6.8 NNW 9 19 5 10 1005.7 1005.5 0.0
29/05:00pm 31.9 35.5 22.3 56 6.5 NNW 7 15 4 8 1005.7 1005.5 0.0
29/04:30pm 32.8 36.5 22.6 55 7.0 N 7 13 4 7 1005.6 1005.4 0.0
29/04:00pm 31.8 35.3 22.8 59 6.2 N 9 17 5 9 1005.4 1005.2 0.0
29/03:30pm 31.7 35.3 23.0 60 6.0 N 9 17 5 9 1005.7 1005.5 0.0
29/03:00pm 32.0 35.8 23.5 60 5.9 N 9 17 5 9 1005.7 1005.5 0.0
29/02:30pm 33.0 36.4 23.3 56 6.7 N 11 20 6 11 1006.2 1006.0 0.0
29/02:00pm 34.1 37.2 24.1 56 7.0 NNE 15 22 8 12 1006.4 1006.2 0.0
29/01:30pm 33.6 37.1 23.6 56 7.0 NNE 11 20 6 11 1006.8 1006.6 0.0
29/01:00pm 32.9 36.7 24.1 60 6.2 NNW 11 17 6 9 1007.3 1007.1 0.0
29/12:30pm 32.0 35.6 23.0 59 6.2 NNW 9 17 5 9 1008.0 1007.8 0.0
29/12:00pm 33.2 37.4 23.5 56 6.7 NNW 7 13 4 7 1008.5 1008.3 0.0
29/11:30am 33.4 37.6 23.4 55 6.9 NE 7 11 4 6 1008.8 1008.6 0.0
29/11:00am 33.4 38.7 24.3 59 6.4 S 4 9 2 5 1009.1 1008.9 0.0
29/10:30am 31.5 35.4 23.6 63 5.5 W 9 13 5 7 1009.6 1009.4 0.0
29/10:00am 31.9 36.2 23.7 62 5.7 WNW 7 13 4 7 1009.6 1009.4 0.0
29/09:30am 31.8 36.3 23.9 63 5.5 WNW 7 11 4 6 1009.6 1009.4 0.0
29/09:00am 31.3 36.5 24.2 66 5.0 SE 4 7 2 4 1009.4 1009.2 0.0
29/08:30am 31.5 37.0 24.6 67 4.8 S 4 7 2 4 1009.4 1009.2 0.0
29/08:00am 30.1 35.0 24.7 73 3.8 SSW 7 9 4 5 1009.2 1009.0 0.0
29/07:30am 29.4 34.3 24.7 76 3.3 SSW 7 9 4 5 1009.0 1008.8 0.0
29/07:00am 28.4 33.7 25.0 82 2.4 SSW 6 11 3 6 1008.7 1008.5 0.0
29/06:30am 27.5 33.0 24.7 85 2.0 SSW 4 7 2 4 1008.3 1008.1 0.0
29/06:00am 27.5 33.5 24.9 86 1.8 SSW 2 4 1 2 1008.0 1007.8 0.0
29/05:30am 27.3 32.8 24.7 86 1.8 SSW 4 4 2 2 1007.6 1007.4 0.0
29/05:00am 27.5 33.5 24.9 86 1.8 S 2 4 1 2 1007.4 1007.2 0.0
29/04:30am 27.6 33.7 25.0 86 1.8 S 2 4 1 2 1007.1 1006.9 0.0
29/04:00am 27.7 34.2 25.1 86 1.8 CALM 0 2 0 1 1006.9 1006.7 0.0
29/03:30am 27.9 34.4 25.1 85 2.0 CALM 0 0 0 0 1007.1 1006.9 0.0
29/03:00am 27.9 34.5 25.3 86 1.8 CALM 0 0 0 0 1007.0 1006.8 0.0
29/02:30am 27.7 34.2 25.1 86 1.8 CALM 0 0 0 0 1007.2 1007.0 0.0
29/02:00am 27.8 34.5 25.4 87 1.7 CALM 0 0 0 0 1007.5 1007.3 0.0
29/01:30am 27.6 34.1 25.0 86 1.8 CALM 0 0 0 0 1007.7 1007.5 0.0
29/01:00am 27.8 34.4 25.2 86 1.8 CALM 0 0 0 0 1007.9 1007.7 0.0
29/12:30am 27.8 34.3 25.0 85 2.0 CALM 0 0 0 0 1008.1 1007.9 0.0
29/12:00am 27.8 34.0 24.6 83 2.2 CALM 0 0 0 0 1008.1 1007.9 0.0
 
Date/Time
CST
Temp
°C
App
Temp
°C
Dew
Point
°C
Rel
Hum
%
Delta-T
°C
Wind Press
QNH
hPa
Press
MSL
hPa
Rain since
9am
mm
Dir  Spd
km/h
Gust
km/h
Spd
kts
Gust
kts
28/11:30pm 28.0 34.1 24.4 81 2.5 CALM 0 0 0 0 1008.3 1008.1 0.0
28/11:00pm 28.1 34.0 24.1 79 2.8 CALM 0 0 0 0 1008.5 1008.3 0.0
28/10:30pm 28.5 34.4 24.1 77 3.1 CALM 0 0 0 0 1008.6 1008.4 0.0
28/10:00pm 28.6 34.6 24.2 77 3.1 CALM 0 0 0 0 1008.6 1008.4 0.0
28/09:30pm 28.9 34.9 24.2 76 3.3 CALM 0 4 0 2 1008.4 1008.2 0.0
28/09:00pm 28.9 34.9 24.2 76 3.3 CALM 0 4 0 2 1008.2 1008.0 0.0
28/08:30pm 29.3 34.4 24.0 73 3.7 NW 4 6 2 3 1008.0 1007.8 0.0
28/08:00pm 29.4 34.8 23.8 72 3.9 N 2 7 1 4 1007.9 1007.7 0.0
28/07:30pm 29.5 35.3 23.9 72 3.9 CALM 0 4 0 2 1007.8 1007.6 0.0
28/07:00pm 29.9 35.1 23.6 69 4.3 N 2 6 1 3 1007.7 1007.5 0.0
28/06:30pm 30.4 35.3 23.6 67 4.7 N 4 7 2 4 1007.3 1007.1 0.0
28/06:00pm 30.9 35.3 23.8 66 4.9 NNE 7 15 4 8 1006.9 1006.7 0.0
28/05:30pm 31.3 35.9 24.2 66 5.0 NNE 7 11 4 6 1006.5 1006.3 0.0
28/05:00pm 30.9 36.3 24.5 68 4.5 NNW 4 7 2 4 1006.6 1006.4 0.0
28/04:30pm 30.4 35.6 24.8 72 3.9 W 6 9 3 5 1006.9 1006.7 0.0
28/04:00pm 30.4 35.0 23.8 68 4.6 WSW 6 9 3 5 1007.0 1006.8 0.0
28/03:30pm 31.1 35.1 23.7 64 5.1 SSE 9 15 5 8 1007.3 1007.1 0.0
28/03:00pm 32.9 36.4 21.1 50 8.0 NE 4 9 2 5 1007.3 1007.1 0.0
28/02:30pm 34.4 38.1 22.5 50 8.2 NNE 7 15 4 8 1007.5 1007.3 0.0
28/02:00pm 33.2 36.2 22.0 51 7.6 ENE 9 17 5 9 1007.9 1007.7 0.0
28/01:30pm 33.5 36.0 21.0 48 8.4 ENE 9 17 5 9 1007.9 1007.7 0.0
28/01:00pm 34.1 37.0 22.5 50 8.0 ENE 11 17 6 9 1008.3 1008.1 0.0
28/12:30pm 33.8 37.4 23.8 56 7.0 E 11 17 6 9 1008.7 1008.5 0.0
28/12:00pm 32.3 35.5 23.0 58 6.4 E 11 17 6 9 1009.3 1009.1 0.0
28/11:30am 32.6 36.2 23.8 59 6.1 E 11 20 6 11 1009.8 1009.6 0.0
28/11:00am 32.5 36.1 23.7 59 6.1 E 11 17 6 9 1010.0 1009.8 0.0
28/10:30am 31.5 34.8 23.9 64 5.3 E 13 19 7 10 1010.3 1010.1 0.0
28/10:00am 31.4 35.4 23.8 64 5.3 E 9 15 5 8 1010.2 1010.0 0.0
28/09:30am 31.4 35.8 23.8 64 5.3 ESE 7 13 4 7 1010.3 1010.1 0.0
28/09:00am 31.6 35.6 23.7 63 5.5 E 9 13 5 7 1010.2 1010.0 0.0
28/08:30am 30.7 34.3 23.1 64 5.2 ESE 9 13 5 7 1010.1 1009.9 0.0
28/08:00am 30.1 33.2 22.8 65 5.0 SE 11 17 6 9 1009.9 1009.7 0.0
28/07:30am 29.3 32.2 22.5 67 4.6 SSE 11 15 6 8 1009.8 1009.6 0.0
28/07:00am 29.1 33.3 23.5 72 3.9 SSE 7 11 4 6 1009.6 1009.4 0.0
28/06:30am 27.8 31.2 22.7 74 3.5 SSE 9 15 5 8 1009.1 1008.9 0.0
28/06:00am 27.8 32.3 23.6 78 2.9 SE 6 7 3 4 1008.6 1008.4 0.0
28/05:30am 27.8 32.0 23.4 77 3.0 SE 7 9 4 5 1008.2 1008.0 0.0
28/05:00am 27.9 32.4 23.9 79 2.8 SE 7 11 4 6 1008.2 1008.0 0.0
28/04:30am 27.7 33.0 24.3 82 2.4 S 4 6 2 3 1008.2 1008.0 0.0
28/04:00am 27.6 32.8 24.2 82 2.4 SSE 4 6 2 3 1008.0 1007.8 0.0
28/03:30am 27.7 32.6 24.3 82 2.4 SE 6 7 3 4 1007.8 1007.6 0.0
28/03:00am 27.6 33.8 24.6 84 2.1 CALM 0 4 0 2 1007.8 1007.6 0.0
28/02:30am 27.7 33.0 24.3 82 2.4 SSE 4 6 2 3 1007.8 1007.6 0.0
28/02:00am 27.6 32.4 24.2 82 2.4 SE 6 7 3 4 1008.0 1007.8 0.0
28/01:30am 27.6 32.4 24.2 82 2.4 SSE 6 9 3 5 1008.4 1008.2 0.0
28/01:00am 27.5 32.8 24.4 83 2.2 SSE 4 6 2 3 1008.7 1008.5 0.0
28/12:30am 27.6 32.8 24.2 82 2.4 SSE 4 6 2 3 1008.8 1008.6 0.0
28/12:00am 27.7 32.5 24.1 81 2.5 S 6 7 3 4 1009.0 1008.8 0.0
 
Date/Time
CST
Temp
°C
App
Temp
°C
Dew
Point
°C
Rel
Hum
%
Delta-T
°C
Wind Press
QNH
hPa
Press
MSL
hPa
Rain since
9am
mm
Dir  Spd
km/h
Gust
km/h
Spd
kts
Gust
kts
27/11:30pm 27.6 33.4 24.6 84 2.1 ENE 2 4 1 2 1009.2 1009.0 0.0
27/11:00pm 28.0 34.0 24.2 80 2.6 CALM 0 0 0 0 1009.3 1009.1 0.0
27/10:30pm 28.6 33.9 24.4 78 2.9 ENE 4 9 2 5 1009.1 1008.9 0.0
27/10:00pm 28.6 33.9 24.4 78 2.9 NE 4 7 2 4 1009.0 1008.8 0.0
27/09:30pm 28.1 33.5 24.5 81 2.5 NE 4 7 2 4 1008.9 1008.7 0.0
27/09:00pm 27.9 34.0 24.5 82 2.4 CALM 0 0 0 0 1008.7 1008.5 0.0
27/08:30pm 27.6 32.6 23.8 80 2.6 ENE 4 6 2 3 1008.4 1008.2 0.0
27/08:00pm 27.8 33.4 23.6 78 2.9 CALM 0 0 0 0 1008.3 1008.1 0.0
27/07:30pm 27.9 33.2 23.1 75 3.3 CALM 0 0 0 0 1008.0 1007.8 0.0
27/07:00pm 28.4 33.3 22.4 70 4.1 CALM 0 0 0 0 1007.8 1007.6 0.0
27/06:30pm 29.0 33.6 22.5 68 4.4 ENE 2 4 1 2 1007.6 1007.4 0.0
27/06:00pm 29.2 34.0 22.9 69 4.3 SW 2 6 1 3 1007.1 1006.9 0.0
27/05:30pm 29.3 32.4 21.5 63 5.2 SSW 7 13 4 7 1007.2 1007.0 0.0
27/05:02pm 30.2 34.4 23.4 67 4.7 E 7 11 4 6 1007.3 1007.1 0.0
27/05:00pm 30.2 34.5 23.6 67 4.6 E 7 11 4 6 1007.3 1007.1 0.0
27/04:52pm 30.2 34.0 23.4 67 4.7 E 9 13 5 7 1007.2 1007.0 0.0
27/04:30pm 30.3 34.8 24.0 69 4.4 ENE 7 13 4 7 1007.2 1007.0 0.0
27/04:00pm 30.4 34.6 24.1 69 4.4 NE 9 15 5 8 1007.1 1006.9 0.0
27/03:30pm 30.9 34.9 22.8 62 5.6 N 6 9 3 5 1006.8 1006.6 0.0
27/03:00pm 31.2 35.9 24.3 66 4.8 ENE 7 13 4 7 1007.0 1006.8 0.0
27/02:30pm 31.6 35.7 24.5 66 5.0 ENE 11 19 6 10 1007.2 1007.0 0.0
27/02:00pm 31.1 35.0 24.2 66 4.8 E 11 15 6 8 1007.4 1007.2 0.0
27/01:30pm 31.1 34.6 23.5 64 5.3 E 11 17 6 9 1008.0 1007.8 0.0
27/01:00pm 31.4 36.0 24.8 68 4.6 ENE 9 15 5 8 1008.4 1008.2 0.0

Other formats

Comma delimited format used in spreadsheet applications
http://www.bom.gov.au/fwo/IDD60801/IDD60801.94139.axf

JavaScript Object Notation format (JSON) in row-major order
http://www.bom.gov.au/fwo/IDD60801/IDD60801.94139.json

Data quality

Most of these data are generated automatically and are frequently updated. Quality checks on data are not normally performed. It is possible for incorrect values to appear. Refer to information at About Latest Weather Observations and please check the disclaimer before using these data.